sensor_id;sensor_type;location;lat;lon;timestamp;pressure;altitude;pressure_sealevel;temperature;humidity
53340;BME280;46212;50.258;19.062;2022-08-19T00:02:19;97944.38;;;22.18;72.67
53340;BME280;46212;50.258;19.062;2022-08-19T00:04:44;97947.94;;;22.18;72.68
53340;BME280;46212;50.258;19.062;2022-08-19T00:07:11;97942.16;;;22.24;72.35
53340;BME280;46212;50.258;19.062;2022-08-19T00:09:37;97940.44;;;22.21;72.75
53340;BME280;46212;50.258;19.062;2022-08-19T00:12:02;97948.47;;;22.17;73.43
53340;BME280;46212;50.258;19.062;2022-08-19T00:14:28;97947.00;;;22.16;73.04
53340;BME280;46212;50.258;19.062;2022-08-19T00:16:56;97952.19;;;22.12;73.40
53340;BME280;46212;50.258;19.062;2022-08-19T00:19:22;97952.59;;;22.16;73.56
53340;BME280;46212;50.258;19.062;2022-08-19T00:21:47;97951.84;;;22.15;73.61
53340;BME280;46212;50.258;19.062;2022-08-19T00:24:13;97958.22;;;22.16;73.58
53340;BME280;46212;50.258;19.062;2022-08-19T00:26:39;97953.38;;;22.16;73.38
53340;BME280;46212;50.258;19.062;2022-08-19T00:29:07;97955.28;;;22.21;73.19
53340;BME280;46212;50.258;19.062;2022-08-19T00:31:33;97947.63;;;22.30;73.05
53340;BME280;46212;50.258;19.062;2022-08-19T00:33:58;97942.25;;;22.39;72.89
53340;BME280;46212;50.258;19.062;2022-08-19T00:36:24;97943.09;;;22.47;72.53
53340;BME280;46212;50.258;19.062;2022-08-19T00:38:49;97934.31;;;22.30;73.33
53340;BME280;46212;50.258;19.062;2022-08-19T00:41:17;97938.25;;;22.27;73.60
53340;BME280;46212;50.258;19.062;2022-08-19T00:43:56;97932.19;;;22.23;73.95
53340;BME280;46212;50.258;19.062;2022-08-19T00:46:21;97923.28;;;22.32;73.37
53340;BME280;46212;50.258;19.062;2022-08-19T00:48:46;97931.66;;;22.24;73.80
53340;BME280;46212;50.258;19.062;2022-08-19T00:51:12;97932.31;;;22.10;74.50
53340;BME280;46212;50.258;19.062;2022-08-19T00:53:37;97934.09;;;22.00;75.01
53340;BME280;46212;50.258;19.062;2022-08-19T00:56:02;97928.06;;;21.96;74.80
53340;BME280;46212;50.258;19.062;2022-08-19T00:58:32;97926.34;;;21.93;74.94
53340;BME280;46212;50.258;19.062;2022-08-19T01:00:58;97917.50;;;21.89;75.41
53340;BME280;46212;50.258;19.062;2022-08-19T01:03:23;97921.28;;;21.91;75.46
53340;BME280;46212;50.258;19.062;2022-08-19T01:05:49;97918.03;;;21.87;75.70
53340;BME280;46212;50.258;19.062;2022-08-19T01:08:15;97922.28;;;21.81;75.81
53340;BME280;46212;50.258;19.062;2022-08-19T01:10:43;97921.34;;;21.78;76.24
53340;BME280;46212;50.258;19.062;2022-08-19T01:13:09;97925.78;;;21.73;76.03
53340;BME280;46212;50.258;19.062;2022-08-19T01:15:43;97921.25;;;21.70;76.53
53340;BME280;46212;50.258;19.062;2022-08-19T01:18:11;97914.69;;;21.68;76.31
53340;BME280;46212;50.258;19.062;2022-08-19T01:20:36;97912.97;;;21.65;76.99
53340;BME280;46212;50.258;19.062;2022-08-19T01:23:02;97913.72;;;21.65;76.71
53340;BME280;46212;50.258;19.062;2022-08-19T01:25:31;97899.25;;;21.61;77.30
53340;BME280;46212;50.258;19.062;2022-08-19T01:27:57;97908.03;;;21.58;77.68
53340;BME280;46212;50.258;19.062;2022-08-19T01:30:32;97907.25;;;21.57;77.37
53340;BME280;46212;50.258;19.062;2022-08-19T01:32:58;97908.69;;;21.51;77.86
53340;BME280;46212;50.258;19.062;2022-08-19T01:35:26;97911.72;;;21.53;77.79
53340;BME280;46212;50.258;19.062;2022-08-19T01:37:55;97909.59;;;21.46;77.99
53340;BME280;46212;50.258;19.062;2022-08-19T01:40:22;97916.09;;;21.41;77.96
53340;BME280;46212;50.258;19.062;2022-08-19T01:42:48;97909.19;;;21.42;77.97
53340;BME280;46212;50.258;19.062;2022-08-19T01:45:14;97909.50;;;21.38;78.30
53340;BME280;46212;50.258;19.062;2022-08-19T01:47:39;97908.97;;;21.40;78.20
53340;BME280;46212;50.258;19.062;2022-08-19T01:50:05;97903.03;;;21.43;78.31
53340;BME280;46212;50.258;19.062;2022-08-19T01:52:31;97905.06;;;21.43;78.33
53340;BME280;46212;50.258;19.062;2022-08-19T01:54:56;97905.75;;;21.36;78.17
53340;BME280;46212;50.258;19.062;2022-08-19T01:57:21;97901.03;;;21.31;78.77
53340;BME280;46212;50.258;19.062;2022-08-19T01:59:46;97897.50;;;21.04;80.57
53340;BME280;46212;50.258;19.062;2022-08-19T02:02:12;97896.97;;;21.05;80.13
53340;BME280;46212;50.258;19.062;2022-08-19T02:04:37;97893.16;;;21.16;79.79
53340;BME280;46212;50.258;19.062;2022-08-19T02:07:03;97889.41;;;21.13;79.80
53340;BME280;46212;50.258;19.062;2022-08-19T02:09:30;97886.47;;;21.06;79.56
53340;BME280;46212;50.258;19.062;2022-08-19T02:11:55;97895.25;;;21.02;80.50
53340;BME280;46212;50.258;19.062;2022-08-19T02:14:20;97897.69;;;21.06;79.65
53340;BME280;46212;50.258;19.062;2022-08-19T02:16:46;97896.97;;;21.05;80.00
53340;BME280;46212;50.258;19.062;2022-08-19T02:19:11;97889.72;;;21.10;79.86
53340;BME280;46212;50.258;19.062;2022-08-19T02:21:36;97893.06;;;21.08;79.92
53340;BME280;46212;50.258;19.062;2022-08-19T02:24:02;97890.03;;;21.06;80.28
53340;BME280;46212;50.258;19.062;2022-08-19T02:26:28;97891.03;;;21.09;79.75
53340;BME280;46212;50.258;19.062;2022-08-19T02:28:53;97895.34;;;21.10;79.70
53340;BME280;46212;50.258;19.062;2022-08-19T02:31:20;97889.63;;;21.02;80.14
53340;BME280;46212;50.258;19.062;2022-08-19T02:33:46;97896.53;;;21.14;79.43
53340;BME280;46212;50.258;19.062;2022-08-19T02:36:12;97895.34;;;21.10;79.40
53340;BME280;46212;50.258;19.062;2022-08-19T02:38:38;97892.84;;;21.06;79.94
53340;BME280;46212;50.258;19.062;2022-08-19T02:41:05;97892.00;;;21.11;79.66
53340;BME280;46212;50.258;19.062;2022-08-19T02:43:32;97892.75;;;21.12;79.75
53340;BME280;46212;50.258;19.062;2022-08-19T02:46:01;97892.66;;;21.04;80.30
53340;BME280;46212;50.258;19.062;2022-08-19T02:48:27;97908.31;;;21.13;80.29
53340;BME280;46212;50.258;19.062;2022-08-19T02:50:52;97895.66;;;21.06;80.12
53340;BME280;46212;50.258;19.062;2022-08-19T02:53:20;97892.63;;;21.17;80.00
53340;BME280;46212;50.258;19.062;2022-08-19T02:55:47;97890.25;;;21.08;80.45
53340;BME280;46212;50.258;19.062;2022-08-19T02:58:13;97885.84;;;21.13;80.03
53340;BME280;46212;50.258;19.062;2022-08-19T03:00:42;97883.13;;;21.07;80.12
53340;BME280;46212;50.258;19.062;2022-08-19T03:03:08;97881.22;;;21.02;80.77
53340;BME280;46212;50.258;19.062;2022-08-19T03:05:33;97887.50;;;20.82;81.49
53340;BME280;46212;50.258;19.062;2022-08-19T03:07:59;97892.38;;;20.82;81.49
53340;BME280;46212;50.258;19.062;2022-08-19T03:10:24;97899.41;;;20.75;81.61
53340;BME280;46212;50.258;19.062;2022-08-19T03:12:49;97894.22;;;20.79;81.73
53340;BME280;46212;50.258;19.062;2022-08-19T03:15:14;97897.16;;;20.74;81.81
53340;BME280;46212;50.258;19.062;2022-08-19T03:17:40;97890.22;;;20.61;82.69
53340;BME280;46212;50.258;19.062;2022-08-19T03:20:05;97892.50;;;20.63;82.56
53340;BME280;46212;50.258;19.062;2022-08-19T03:22:31;97891.97;;;20.64;82.54
53340;BME280;46212;50.258;19.062;2022-08-19T03:24:56;97883.84;;;20.74;82.02
53340;BME280;46212;50.258;19.062;2022-08-19T03:27:21;97894.03;;;20.64;82.82
53340;BME280;46212;50.258;19.062;2022-08-19T03:29:47;97892.03;;;20.85;81.58
53340;BME280;46212;50.258;19.062;2022-08-19T03:32:12;97897.88;;;20.74;81.80
53340;BME280;46212;50.258;19.062;2022-08-19T03:34:38;97895.84;;;20.61;82.50
53340;BME280;46212;50.258;19.062;2022-08-19T03:37:05;97886.75;;;20.82;81.51
53340;BME280;46212;50.258;19.062;2022-08-19T03:39:31;97893.59;;;20.73;82.08
53340;BME280;46212;50.258;19.062;2022-08-19T03:41:56;97888.81;;;20.68;82.15
53340;BME280;46212;50.258;19.062;2022-08-19T03:44:27;97891.97;;;20.64;82.15
53340;BME280;46212;50.258;19.062;2022-08-19T03:46:53;97902.97;;;20.62;82.31
53340;BME280;46212;50.258;19.062;2022-08-19T03:49:20;97901.03;;;20.71;81.73
53340;BME280;46212;50.258;19.062;2022-08-19T03:51:47;97901.78;;;20.71;82.01
53340;BME280;46212;50.258;19.062;2022-08-19T03:54:13;97903.41;;;20.66;82.26
53340;BME280;46212;50.258;19.062;2022-08-19T03:56:41;97911.28;;;20.68;81.98
53340;BME280;46212;50.258;19.062;2022-08-19T03:59:08;97915.72;;;20.63;82.13
53340;BME280;46212;50.258;19.062;2022-08-19T04:01:34;97913.88;;;20.66;82.34
53340;BME280;46212;50.258;19.062;2022-08-19T04:03:59;97920.13;;;20.72;81.89
53340;BME280;46212;50.258;19.062;2022-08-19T04:06:29;97909.47;;;20.71;82.09
53340;BME280;46212;50.258;19.062;2022-08-19T04:08:56;97919.03;;;20.75;81.30
53340;BME280;46212;50.258;19.062;2022-08-19T04:11:23;97931.16;;;20.70;81.60
53340;BME280;46212;50.258;19.062;2022-08-19T04:13:49;97931.91;;;20.71;81.78
53340;BME280;46212;50.258;19.062;2022-08-19T04:16:16;97926.69;;;20.75;82.00
53340;BME280;46212;50.258;19.062;2022-08-19T04:18:42;97924.53;;;20.81;81.83
53340;BME280;46212;50.258;19.062;2022-08-19T04:21:07;97922.13;;;20.98;81.10
53340;BME280;46212;50.258;19.062;2022-08-19T04:23:33;97934.78;;;20.91;81.75
53340;BME280;46212;50.258;19.062;2022-08-19T04:25:59;97931.09;;;20.96;81.64
53340;BME280;46212;50.258;19.062;2022-08-19T04:28:24;97946.31;;;20.88;81.79
53340;BME280;46212;50.258;19.062;2022-08-19T04:30:50;97953.00;;;20.98;81.30
53340;BME280;46212;50.258;19.062;2022-08-19T04:33:17;97949.25;;;20.95;81.46
53340;BME280;46212;50.258;19.062;2022-08-19T04:35:45;97945.34;;;21.11;81.36
53340;BME280;46212;50.258;19.062;2022-08-19T04:38:11;97952.72;;;21.35;80.27
53340;BME280;46212;50.258;19.062;2022-08-19T04:40:40;97954.53;;;21.46;79.79
53340;BME280;46212;50.258;19.062;2022-08-19T04:43:24;97965.41;;;21.62;79.21
53340;BME280;46212;50.258;19.062;2022-08-19T04:45:49;97961.19;;;21.90;78.32
53340;BME280;46212;50.258;19.062;2022-08-19T04:48:16;97962.91;;;21.93;77.37
53340;BME280;46212;50.258;19.062;2022-08-19T04:50:43;97957.63;;;21.89;78.16
53340;BME280;46212;50.258;19.062;2022-08-19T04:53:09;97963.03;;;22.08;77.18
53340;BME280;46212;50.258;19.062;2022-08-19T04:55:37;97959.03;;;22.24;76.19
53340;BME280;46212;50.258;19.062;2022-08-19T04:58:03;97956.81;;;22.30;76.82
53340;BME280;46212;50.258;19.062;2022-08-19T05:00:28;97957.13;;;22.19;76.98
53340;BME280;46212;50.258;19.062;2022-08-19T05:02:54;97954.16;;;22.24;76.44
53340;BME280;46212;50.258;19.062;2022-08-19T05:05:19;97952.72;;;22.31;76.02
53340;BME280;46212;50.258;19.062;2022-08-19T05:07:44;97949.59;;;22.42;75.59
53340;BME280;46212;50.258;19.062;2022-08-19T05:10:09;97958.16;;;22.57;74.63
53340;BME280;46212;50.258;19.062;2022-08-19T05:12:35;97955.63;;;22.67;74.11
53340;BME280;46212;50.258;19.062;2022-08-19T05:15:03;97952.53;;;22.57;75.24
53340;BME280;46212;50.258;19.062;2022-08-19T05:17:28;97950.09;;;22.61;74.63
53340;BME280;46212;50.258;19.062;2022-08-19T05:19:54;97951.81;;;22.64;74.53
53340;BME280;46212;50.258;19.062;2022-08-19T05:22:38;97954.78;;;22.87;73.71
53340;BME280;46212;50.258;19.062;2022-08-19T05:25:05;97963.88;;;23.01;72.79
53340;BME280;46212;50.258;19.062;2022-08-19T05:27:31;97960.22;;;23.21;71.98
53340;BME280;46212;50.258;19.062;2022-08-19T05:29:57;97960.22;;;23.28;71.64
53340;BME280;46212;50.258;19.062;2022-08-19T05:32:22;97970.41;;;23.39;71.52
53340;BME280;46212;50.258;19.062;2022-08-19T05:34:48;97966.53;;;23.50;71.47
53340;BME280;46212;50.258;19.062;2022-08-19T05:37:14;97978.16;;;23.46;70.96
53340;BME280;46212;50.258;19.062;2022-08-19T05:39:39;97976.56;;;23.30;71.56
53340;BME280;46212;50.258;19.062;2022-08-19T05:42:06;97974.00;;;23.47;71.29
53340;BME280;46212;50.258;19.062;2022-08-19T05:44:34;97972.56;;;23.61;69.97
53340;BME280;46212;50.258;19.062;2022-08-19T05:47:01;97969.59;;;23.74;68.92
53340;BME280;46212;50.258;19.062;2022-08-19T05:49:27;97983.25;;;23.63;70.49
53340;BME280;46212;50.258;19.062;2022-08-19T05:51:53;97981.22;;;23.71;70.13
53340;BME280;46212;50.258;19.062;2022-08-19T05:54:19;97984.84;;;23.87;68.93
53340;BME280;46212;50.258;19.062;2022-08-19T05:56:45;97980.31;;;23.99;68.97
53340;BME280;46212;50.258;19.062;2022-08-19T05:59:12;97973.38;;;24.07;68.56
53340;BME280;46212;50.258;19.062;2022-08-19T06:01:42;97975.81;;;24.11;67.54
53340;BME280;46212;50.258;19.062;2022-08-19T06:04:08;97966.47;;;24.31;67.11
53340;BME280;46212;50.258;19.062;2022-08-19T06:06:33;97975.28;;;24.27;67.41
53340;BME280;46212;50.258;19.062;2022-08-19T06:08:59;97983.75;;;24.50;66.94
53340;BME280;46212;50.258;19.062;2022-08-19T06:13:57;97984.47;;;24.66;66.48
53340;BME280;46212;50.258;19.062;2022-08-19T06:16:24;97995.94;;;24.83;65.67
53340;BME280;46212;50.258;19.062;2022-08-19T06:18:50;97989.16;;;24.94;66.10
53340;BME280;46212;50.258;19.062;2022-08-19T06:21:20;97998.16;;;25.07;64.91
53340;BME280;46212;50.258;19.062;2022-08-19T06:23:46;98005.31;;;25.08;64.95
53340;BME280;46212;50.258;19.062;2022-08-19T06:26:12;97997.34;;;25.22;64.39
53340;BME280;46212;50.258;19.062;2022-08-19T06:28:38;97983.91;;;25.37;63.98
53340;BME280;46212;50.258;19.062;2022-08-19T06:31:07;97985.63;;;25.33;63.69
53340;BME280;46212;50.258;19.062;2022-08-19T06:33:33;97982.81;;;25.33;64.11
53340;BME280;46212;50.258;19.062;2022-08-19T06:35:58;97988.06;;;25.36;64.48
53340;BME280;46212;50.258;19.062;2022-08-19T06:38:23;97994.03;;;25.48;63.78
53340;BME280;46212;50.258;19.062;2022-08-19T06:40:49;97996.34;;;25.34;64.97
53340;BME280;46212;50.258;19.062;2022-08-19T06:43:14;98004.66;;;25.40;65.27
53340;BME280;46212;50.258;19.062;2022-08-19T06:45:40;97995.19;;;25.45;65.75
53340;BME280;46212;50.258;19.062;2022-08-19T06:48:06;98014.38;;;25.62;63.57
53340;BME280;46212;50.258;19.062;2022-08-19T06:50:32;98011.53;;;25.62;62.48
53340;BME280;46212;50.258;19.062;2022-08-19T06:52:57;98016.34;;;25.76;61.76
53340;BME280;46212;50.258;19.062;2022-08-19T06:55:22;98028.72;;;25.88;61.36
53340;BME280;46212;50.258;19.062;2022-08-19T06:57:47;98022.13;;;25.94;60.09
53340;BME280;46212;50.258;19.062;2022-08-19T07:00:13;98026.63;;;25.97;60.03
53340;BME280;46212;50.258;19.062;2022-08-19T07:02:40;98026.22;;;26.00;59.18
53340;BME280;46212;50.258;19.062;2022-08-19T07:05:06;98022.84;;;25.94;58.93
53340;BME280;46212;50.258;19.062;2022-08-19T07:07:31;98026.34;;;26.10;58.97
53340;BME280;46212;50.258;19.062;2022-08-19T07:09:56;98030.94;;;25.98;59.98
53340;BME280;46212;50.258;19.062;2022-08-19T07:12:22;98028.63;;;26.04;59.56
53340;BME280;46212;50.258;19.062;2022-08-19T07:14:47;98033.97;;;26.32;58.96
53340;BME280;46212;50.258;19.062;2022-08-19T07:17:14;98040.03;;;26.28;59.34
53340;BME280;46212;50.258;19.062;2022-08-19T07:19:40;98047.25;;;26.22;60.29
53340;BME280;46212;50.258;19.062;2022-08-19T07:22:07;98048.97;;;26.42;59.19
53340;BME280;46212;50.258;19.062;2022-08-19T07:24:32;98055.50;;;26.52;58.68
53340;BME280;46212;50.258;19.062;2022-08-19T07:26:59;98062.66;;;26.53;58.21
53340;BME280;46212;50.258;19.062;2022-08-19T07:29:26;98061.00;;;26.50;58.67
53340;BME280;46212;50.258;19.062;2022-08-19T07:31:52;98057.28;;;26.65;58.68
53340;BME280;46212;50.258;19.062;2022-08-19T07:34:21;98063.94;;;26.84;58.61
53340;BME280;46212;50.258;19.062;2022-08-19T07:36:47;98059.03;;;27.02;57.75
53340;BME280;46212;50.258;19.062;2022-08-19T07:39:14;98065.13;;;26.99;58.58
53340;BME280;46212;50.258;19.062;2022-08-19T07:41:40;98070.47;;;26.95;58.54
53340;BME280;46212;50.258;19.062;2022-08-19T07:44:06;98074.31;;;27.07;58.34
53340;BME280;46212;50.258;19.062;2022-08-19T07:46:33;98067.56;;;27.19;57.58
53340;BME280;46212;50.258;19.062;2022-08-19T07:48:58;98065.97;;;27.09;57.27
53340;BME280;46212;50.258;19.062;2022-08-19T07:51:25;98078.06;;;27.26;58.06
53340;BME280;46212;50.258;19.062;2022-08-19T07:53:51;98078.28;;;27.46;57.81
53340;BME280;46212;50.258;19.062;2022-08-19T07:56:17;98072.50;;;27.36;56.66
53340;BME280;46212;50.258;19.062;2022-08-19T07:58:44;98073.72;;;27.25;56.91
53340;BME280;46212;50.258;19.062;2022-08-19T08:01:11;98070.97;;;27.35;56.89
53340;BME280;46212;50.258;19.062;2022-08-19T08:03:36;98072.81;;;27.57;56.90
53340;BME280;46212;50.258;19.062;2022-08-19T08:06:21;98086.50;;;27.68;56.63
53340;BME280;46212;50.258;19.062;2022-08-19T08:09:05;98081.69;;;27.88;55.73
53340;BME280;46212;50.258;19.062;2022-08-19T08:11:40;98088.19;;;27.54;55.35
53340;BME280;46212;50.258;19.062;2022-08-19T08:14:07;98090.75;;;27.60;56.25
53340;BME280;46212;50.258;19.062;2022-08-19T08:16:33;98091.34;;;27.58;55.60
53340;BME280;46212;50.258;19.062;2022-08-19T08:18:59;98089.28;;;27.59;55.43
53340;BME280;46212;50.258;19.062;2022-08-19T08:21:25;98096.19;;;27.48;56.06
53340;BME280;46212;50.258;19.062;2022-08-19T08:23:50;98084.50;;;27.61;56.87
53340;BME280;46212;50.258;19.062;2022-08-19T08:26:17;98083.84;;;27.70;56.03
53340;BME280;46212;50.258;19.062;2022-08-19T08:28:42;98092.25;;;27.61;56.13
53340;BME280;46212;50.258;19.062;2022-08-19T08:31:07;98091.16;;;27.73;56.55
53340;BME280;46212;50.258;19.062;2022-08-19T08:33:32;98086.66;;;27.87;55.71
53340;BME280;46212;50.258;19.062;2022-08-19T08:35:58;98081.75;;;28.15;55.64
53340;BME280;46212;50.258;19.062;2022-08-19T08:38:23;98084.75;;;28.17;55.42
53340;BME280;46212;50.258;19.062;2022-08-19T08:40:49;98081.31;;;28.18;56.62
53340;BME280;46212;50.258;19.062;2022-08-19T08:45:46;98083.41;;;28.54;55.79
53340;BME280;46212;50.258;19.062;2022-08-19T08:48:31;98080.69;;;28.73;55.77
53340;BME280;46212;50.258;19.062;2022-08-19T08:50:59;98074.13;;;28.80;55.00
53340;BME280;46212;50.258;19.062;2022-08-19T08:53:27;98078.34;;;28.89;54.57
53340;BME280;46212;50.258;19.062;2022-08-19T08:55:52;98075.78;;;28.93;53.47
53340;BME280;46212;50.258;19.062;2022-08-19T08:58:20;98066.25;;;28.98;54.12
53340;BME280;46212;50.258;19.062;2022-08-19T09:00:49;98064.31;;;29.10;53.63
53340;BME280;46212;50.258;19.062;2022-08-19T09:03:27;98062.72;;;29.26;53.19
53340;BME280;46212;50.258;19.062;2022-08-19T09:06:00;98060.78;;;29.48;53.11
53340;BME280;46212;50.258;19.062;2022-08-19T09:08:40;98052.22;;;29.58;53.59
53340;BME280;46212;50.258;19.062;2022-08-19T09:11:13;98052.81;;;29.66;52.66
53340;BME280;46212;50.258;19.062;2022-08-19T09:16:13;98051.91;;;29.73;51.17
53340;BME280;46212;50.258;19.062;2022-08-19T09:21:05;98068.69;;;29.69;51.52
53340;BME280;46212;50.258;19.062;2022-08-19T09:23:30;98073.03;;;29.50;51.18
53340;BME280;46212;50.258;19.062;2022-08-19T09:25:55;98067.22;;;29.58;50.69
53340;BME280;46212;50.258;19.062;2022-08-19T09:28:20;98061.53;;;29.58;51.41
53340;BME280;46212;50.258;19.062;2022-08-19T09:30:46;98064.50;;;29.89;50.53
53340;BME280;46212;50.258;19.062;2022-08-19T09:33:11;98065.69;;;29.95;50.09
53340;BME280;46212;50.258;19.062;2022-08-19T09:35:36;98060.69;;;30.15;50.03
53340;BME280;46212;50.258;19.062;2022-08-19T09:38:02;98065.28;;;30.30;49.43
53340;BME280;46212;50.258;19.062;2022-08-19T09:40:27;98064.69;;;30.41;48.81
53340;BME280;46212;50.258;19.062;2022-08-19T09:42:53;98066.75;;;30.50;48.46
53340;BME280;46212;50.258;19.062;2022-08-19T09:45:20;98068.22;;;30.51;48.59
53340;BME280;46212;50.258;19.062;2022-08-19T09:47:46;98062.72;;;30.74;48.28
53340;BME280;46212;50.258;19.062;2022-08-19T09:50:13;98071.97;;;30.84;46.59
53340;BME280;46212;50.258;19.062;2022-08-19T09:52:38;98072.72;;;30.85;46.13
53340;BME280;46212;50.258;19.062;2022-08-19T09:55:04;98065.91;;;30.99;45.46
53340;BME280;46212;50.258;19.062;2022-08-19T09:57:29;98066.34;;;31.27;45.77
53340;BME280;46212;50.258;19.062;2022-08-19T09:59:55;98067.13;;;31.18;45.21
53340;BME280;46212;50.258;19.062;2022-08-19T10:02:20;98063.59;;;31.50;46.39
53340;BME280;46212;50.258;19.062;2022-08-19T10:04:45;98064.75;;;31.56;45.28
53340;BME280;46212;50.258;19.062;2022-08-19T10:07:36;98068.34;;;31.57;43.21
53340;BME280;46212;50.258;19.062;2022-08-19T10:10:05;98067.16;;;31.72;44.70
53340;BME280;46212;50.258;19.062;2022-08-19T10:12:34;98075.69;;;31.60;43.30
53340;BME280;46212;50.258;19.062;2022-08-19T10:15:00;98073.72;;;30.89;42.33
53340;BME280;46212;50.258;19.062;2022-08-19T10:17:25;98082.34;;;30.80;42.56
53340;BME280;46212;50.258;19.062;2022-08-19T10:19:51;98070.94;;;30.49;44.09
53340;BME280;46212;50.258;19.062;2022-08-19T10:22:17;98066.88;;;30.52;44.54
53340;BME280;46212;50.258;19.062;2022-08-19T10:24:42;98068.00;;;30.68;43.81
53340;BME280;46212;50.258;19.062;2022-08-19T10:27:07;98073.81;;;31.11;45.14
53340;BME280;46212;50.258;19.062;2022-08-19T10:29:34;98075.00;;;31.29;44.77
53340;BME280;46212;50.258;19.062;2022-08-19T10:32:00;98076.53;;;31.30;41.86
53340;BME280;46212;50.258;19.062;2022-08-19T10:34:25;98064.63;;;31.54;42.23
53340;BME280;46212;50.258;19.062;2022-08-19T10:36:51;98065.22;;;31.53;42.64
53340;BME280;46212;50.258;19.062;2022-08-19T10:39:16;98068.53;;;31.71;41.35
53340;BME280;46212;50.258;19.062;2022-08-19T10:41:41;98064.59;;;31.87;41.66
53340;BME280;46212;50.258;19.062;2022-08-19T10:44:09;98061.91;;;32.57;42.05
53340;BME280;46212;50.258;19.062;2022-08-19T10:46:36;98066.75;;;32.54;39.04
53340;BME280;46212;50.258;19.062;2022-08-19T10:49:02;98058.53;;;32.49;39.71
53340;BME280;46212;50.258;19.062;2022-08-19T10:51:28;98057.06;;;32.94;39.59
53340;BME280;46212;50.258;19.062;2022-08-19T10:54:12;98049.50;;;32.76;39.44
53340;BME280;46212;50.258;19.062;2022-08-19T10:56:37;98043.63;;;33.08;38.13
53340;BME280;46212;50.258;19.062;2022-08-19T10:59:24;98049.63;;;33.75;38.58
53340;BME280;46212;50.258;19.062;2022-08-19T11:01:52;98045.13;;;33.83;38.90
53340;BME280;46212;50.258;19.062;2022-08-19T11:04:18;98034.66;;;34.01;38.72
53340;BME280;46212;50.258;19.062;2022-08-19T11:06:44;98032.06;;;33.80;37.49
53340;BME280;46212;50.258;19.062;2022-08-19T11:09:12;98030.91;;;33.85;38.43
53340;BME280;46212;50.258;19.062;2022-08-19T11:11:37;98030.63;;;34.06;38.06
53340;BME280;46212;50.258;19.062;2022-08-19T11:14:05;98033.69;;;33.72;36.50
53340;BME280;46212;50.258;19.062;2022-08-19T11:16:30;98029.28;;;34.07;37.17
53340;BME280;46212;50.258;19.062;2022-08-19T11:18:57;98036.16;;;34.28;37.44
53340;BME280;46212;50.258;19.062;2022-08-19T11:21:30;98037.81;;;34.19;35.24
53340;BME280;46212;50.258;19.062;2022-08-19T11:23:59;98034.31;;;34.21;35.31
53340;BME280;46212;50.258;19.062;2022-08-19T11:26:25;98040.63;;;34.05;35.75
53340;BME280;46212;50.258;19.062;2022-08-19T11:28:51;98035.50;;;34.29;36.31
53340;BME280;46212;50.258;19.062;2022-08-19T11:31:19;98032.00;;;34.31;36.33
53340;BME280;46212;50.258;19.062;2022-08-19T11:33:45;98041.09;;;34.13;37.33
53340;BME280;46212;50.258;19.062;2022-08-19T11:36:11;98036.25;;;34.04;35.75
53340;BME280;46212;50.258;19.062;2022-08-19T11:38:36;98042.63;;;33.78;35.32
53340;BME280;46212;50.258;19.062;2022-08-19T11:41:03;98040.66;;;33.43;35.92
53340;BME280;46212;50.258;19.062;2022-08-19T11:43:29;98040.84;;;33.59;36.84
53340;BME280;46212;50.258;19.062;2022-08-19T11:45:55;98046.25;;;33.78;37.22
53340;BME280;46212;50.258;19.062;2022-08-19T11:48:21;98038.22;;;33.88;36.35
53340;BME280;46212;50.258;19.062;2022-08-19T11:50:53;98039.81;;;33.91;34.55
53340;BME280;46212;50.258;19.062;2022-08-19T11:53:21;98037.41;;;34.25;36.59
53340;BME280;46212;50.258;19.062;2022-08-19T11:55:47;98040.16;;;34.23;34.74
53340;BME280;46212;50.258;19.062;2022-08-19T11:58:13;98040.28;;;34.25;34.94
53340;BME280;46212;50.258;19.062;2022-08-19T12:00:40;98049.69;;;34.13;35.38
53340;BME280;46212;50.258;19.062;2022-08-19T12:03:05;98044.53;;;33.73;36.67
53340;BME280;46212;50.258;19.062;2022-08-19T12:05:31;98042.41;;;33.37;35.10
53340;BME280;46212;50.258;19.062;2022-08-19T12:07:56;98036.22;;;33.29;37.35
53340;BME280;46212;50.258;19.062;2022-08-19T12:10:21;98036.38;;;33.19;37.37
53340;BME280;46212;50.258;19.062;2022-08-19T12:12:47;98029.06;;;33.16;35.84
53340;BME280;46212;50.258;19.062;2022-08-19T12:15:12;98031.75;;;33.26;35.26
53340;BME280;46212;50.258;19.062;2022-08-19T12:17:39;98033.75;;;33.60;36.35
53340;BME280;46212;50.258;19.062;2022-08-19T12:20:05;98033.44;;;33.79;35.27
53340;BME280;46212;50.258;19.062;2022-08-19T12:22:32;98033.75;;;34.10;35.97
53340;BME280;46212;50.258;19.062;2022-08-19T12:24:57;98025.19;;;34.38;36.60
53340;BME280;46212;50.258;19.062;2022-08-19T12:27:23;98022.50;;;34.67;35.56
53340;BME280;46212;50.258;19.062;2022-08-19T12:29:48;98025.38;;;34.67;34.56
53340;BME280;46212;50.258;19.062;2022-08-19T12:32:14;98021.13;;;34.68;35.04
53340;BME280;46212;50.258;19.062;2022-08-19T12:34:39;98022.50;;;34.67;35.35
53340;BME280;46212;50.258;19.062;2022-08-19T12:37:05;98022.69;;;34.05;34.56
53340;BME280;46212;50.258;19.062;2022-08-19T12:39:38;98015.03;;;34.09;36.56
53340;BME280;46212;50.258;19.062;2022-08-19T12:42:04;98006.06;;;34.15;36.78
53340;BME280;46212;50.258;19.062;2022-08-19T12:44:29;98006.44;;;34.09;36.71
53340;BME280;46212;50.258;19.062;2022-08-19T12:46:56;98000.16;;;34.25;36.90
53340;BME280;46212;50.258;19.062;2022-08-19T12:49:21;98000.50;;;34.72;36.30
53340;BME280;46212;50.258;19.062;2022-08-19T12:51:46;97993.16;;;35.09;35.27
53340;BME280;46212;50.258;19.062;2022-08-19T12:54:12;97989.41;;;35.50;34.56
53340;BME280;46212;50.258;19.062;2022-08-19T12:56:37;97981.84;;;36.01;33.54
53340;BME280;46212;50.258;19.062;2022-08-19T12:59:02;97981.06;;;36.79;32.30